createdAt,value
2022-08-26T00:02:11.460Z,97695.25
2022-08-26T00:05:17.633Z,97702.41
2022-08-26T00:08:25.026Z,97688.25
2022-08-26T00:11:30.078Z,97698.16
2022-08-26T00:14:34.111Z,97695.13
2022-08-26T00:17:40.359Z,97700.69
2022-08-26T00:20:46.205Z,97690.59
2022-08-26T00:23:50.229Z,97698.09
2022-08-26T00:26:54.139Z,97700.03
2022-08-26T00:29:59.122Z,97691.72
2022-08-26T00:33:05.661Z,97682.28
2022-08-26T00:36:19.989Z,97686.13
2022-08-26T00:39:24.530Z,97674.50
2022-08-26T00:42:28.798Z,97681.91
2022-08-26T00:45:40.965Z,97686.59
2022-08-26T00:48:51.809Z,97677.97
2022-08-26T00:52:00.371Z,97678.66
2022-08-26T00:55:10.119Z,97676.84
2022-08-26T00:58:14.371Z,97677.63
2022-08-26T01:01:22.900Z,97672.41
2022-08-26T01:04:30.062Z,97678.44
2022-08-26T01:07:37.843Z,97676.09
2022-08-26T01:10:44.864Z,97678.72
2022-08-26T01:13:52.515Z,97678.34
2022-08-26T01:16:58.368Z,97677.63
2022-08-26T01:20:08.787Z,97677.63
2022-08-26T01:23:16.488Z,97679.22
2022-08-26T01:26:23.292Z,97672.53
2022-08-26T01:29:27.635Z,97669.28
2022-08-26T01:32:36.713Z,97670.59
2022-08-26T01:35:44.700Z,97669.81
2022-08-26T01:38:50.607Z,97666.94
2022-08-26T01:41:58.039Z,97670.28
2022-08-26T01:45:15.100Z,97673.34
2022-08-26T01:48:24.738Z,97673.94
2022-08-26T01:51:30.546Z,97673.03
2022-08-26T01:54:36.960Z,97677.00
2022-08-26T01:57:44.360Z,97672.72
2022-08-26T02:00:50.377Z,97674.03
2022-08-26T02:03:59.879Z,97678.84
2022-08-26T02:07:07.694Z,97686.72
2022-08-26T02:10:13.805Z,97679.28
2022-08-26T02:13:19.097Z,97680.75
2022-08-26T02:16:27.478Z,97678.38
2022-08-26T02:19:33.395Z,97682.88
2022-08-26T02:22:37.617Z,97677.31
2022-08-26T02:25:50.911Z,97674.56
2022-08-26T02:29:03.371Z,97680.91
2022-08-26T02:32:27.136Z,97667.25
2022-08-26T02:35:33.299Z,97675.09
2022-08-26T02:38:38.049Z,97671.66
2022-08-26T02:41:47.478Z,97672.25
2022-08-26T02:44:52.500Z,97664.47
2022-08-26T02:47:59.642Z,97675.16
2022-08-26T02:51:03.535Z,97666.97
2022-08-26T02:54:08.018Z,97663.66
2022-08-26T02:57:15.077Z,97667.03
2022-08-26T03:00:20.894Z,97662.78
2022-08-26T03:03:25.624Z,97672.13
2022-08-26T03:06:32.498Z,97670.81
2022-08-26T03:09:38.925Z,97672.19
2022-08-26T03:12:47.530Z,97667.47
2022-08-26T03:15:55.558Z,97665.63
2022-08-26T03:19:00.991Z,97663.88
2022-08-26T03:22:06.123Z,97664.25
2022-08-26T03:25:13.345Z,97663.25
2022-08-26T03:28:22.154Z,97657.91
2022-08-26T03:31:25.463Z,97662.25
2022-08-26T03:34:29.363Z,97667.06
2022-08-26T03:37:33.913Z,97672.09
2022-08-26T03:40:38.927Z,97664.66
2022-08-26T03:43:48.484Z,97661.56
2022-08-26T03:46:55.100Z,97664.03
2022-08-26T03:49:59.750Z,97665.16
2022-08-26T03:53:07.441Z,97665.94
2022-08-26T03:56:16.831Z,97654.63
2022-08-26T03:59:25.072Z,97664.78
2022-08-26T04:02:31.828Z,97663.41
2022-08-26T04:05:35.750Z,97656.16
2022-08-26T04:08:40.260Z,97656.97
2022-08-26T04:11:50.744Z,97654.47
2022-08-26T04:19:07.465Z,97657.91
2022-08-26T04:22:30.040Z,97663.84
2022-08-26T04:25:36.205Z,97661.44
2022-08-26T04:28:46.468Z,97655.94
2022-08-26T04:32:06.707Z,97657.00
2022-08-26T04:35:16.050Z,97644.38
2022-08-26T04:41:59.394Z,97654.25
2022-08-26T04:45:10.387Z,97652.09
2022-08-26T04:48:18.504Z,97649.13
2022-08-26T04:51:28.033Z,97663.13
2022-08-26T04:54:32.083Z,97655.31
2022-08-26T04:57:36.382Z,97654.41
2022-08-26T05:04:38.699Z,97646.69
2022-08-26T05:07:44.668Z,97645.03
2022-08-26T05:10:55.380Z,97643.22
2022-08-26T05:14:05.810Z,97645.06
2022-08-26T05:17:10.238Z,97642.44
2022-08-26T05:20:26.231Z,97642.69
2022-08-26T05:23:32.182Z,97647.28
2022-08-26T05:26:36.487Z,97644.63
2022-08-26T05:29:40.820Z,97644.75
2022-08-26T05:32:45.136Z,97646.38
2022-08-26T05:35:51.781Z,97652.91
2022-08-26T05:38:59.254Z,97647.69
2022-08-26T05:42:06.476Z,97641.03
2022-08-26T05:45:11.668Z,97646.78
2022-08-26T05:48:16.890Z,97641.25
2022-08-26T05:51:26.098Z,97638.97
2022-08-26T05:54:30.785Z,97647.88
2022-08-26T05:57:40.455Z,97649.47
2022-08-26T06:00:47.013Z,97653.69
2022-08-26T06:03:54.255Z,97659.31
2022-08-26T06:06:59.963Z,97650.91
2022-08-26T06:10:30.479Z,97650.88
2022-08-26T06:13:31.911Z,97657.34
2022-08-26T06:16:38.777Z,97655.09
2022-08-26T06:19:47.394Z,97658.16
2022-08-26T06:23:10.473Z,97656.47
2022-08-26T06:26:18.559Z,97661.53
2022-08-26T06:29:26.946Z,97659.22
2022-08-26T06:32:31.722Z,97657.72
2022-08-26T06:35:42.567Z,97662.88
2022-08-26T06:38:53.032Z,97666.94
2022-08-26T06:42:03.161Z,97662.41
2022-08-26T06:45:12.334Z,97665.66
2022-08-26T06:48:21.873Z,97660.06
2022-08-26T06:51:34.744Z,97668.03
2022-08-26T06:54:44.340Z,97670.91
2022-08-26T06:57:48.704Z,97676.06
2022-08-26T07:00:54.136Z,97666.97
2022-08-26T07:04:00.429Z,97666.66
2022-08-26T07:07:04.604Z,97667.00
2022-08-26T07:10:17.439Z,97658.31
2022-08-26T07:13:30.503Z,97661.09
2022-08-26T07:16:35.779Z,97657.25
2022-08-26T07:19:40.523Z,97657.31
2022-08-26T07:22:44.337Z,97661.94
2022-08-26T07:25:50.904Z,97640.34
2022-08-26T07:28:57.788Z,97657.56
2022-08-26T07:32:04.650Z,97655.31
2022-08-26T07:35:10.553Z,97656.41
2022-08-26T07:38:16.896Z,97652.56
2022-08-26T07:41:25.454Z,97657.84
2022-08-26T07:44:31.347Z,97646.13
2022-08-26T07:47:35.810Z,97642.56
2022-08-26T07:50:50.339Z,97646.38
2022-08-26T07:53:56.569Z,97637.56
2022-08-26T07:57:05.214Z,97636.59
2022-08-26T08:00:17.150Z,97643.78
2022-08-26T08:03:21.882Z,97646.19
2022-08-26T08:06:28.883Z,97636.19
2022-08-26T08:09:34.277Z,97624.06
2022-08-26T08:12:39.798Z,97628.00
2022-08-26T08:15:44.910Z,97625.03
2022-08-26T08:18:48.663Z,97626.22
2022-08-26T08:21:55.135Z,97627.44
2022-08-26T08:24:58.822Z,97623.16
2022-08-26T08:28:05.213Z,97620.03
2022-08-26T08:31:10.449Z,97615.69
2022-08-26T08:34:15.267Z,97619.00
2022-08-26T08:37:46.210Z,97625.84
2022-08-26T08:40:50.657Z,97610.44
2022-08-26T08:44:44.446Z,97617.53
2022-08-26T08:48:46.709Z,97617.22
2022-08-26T08:51:58.991Z,97611.97
2022-08-26T08:55:31.731Z,97611.00
2022-08-26T08:58:51.552Z,97613.56
2022-08-26T09:02:07.576Z,97601.63
2022-08-26T09:06:01.059Z,97598.59
2022-08-26T09:09:08.863Z,97593.78
2022-08-26T09:12:16.674Z,97587.41
2022-08-26T09:15:30.202Z,97582.28
2022-08-26T09:18:52.733Z,97583.78
2022-08-26T09:21:57.859Z,97573.06
2022-08-26T09:25:04.531Z,97562.81
2022-08-26T09:28:17.528Z,97566.56
2022-08-26T09:31:27.014Z,97562.81
2022-08-26T09:34:33.730Z,97565.53
2022-08-26T09:37:42.326Z,97569.09
2022-08-26T09:40:59.103Z,97567.00
2022-08-26T09:44:14.625Z,97560.22
2022-08-26T09:47:24.307Z,97559.50
2022-08-26T09:50:31.941Z,97558.59
2022-08-26T09:53:51.315Z,97560.41
2022-08-26T09:57:13.828Z,97547.13
2022-08-26T10:00:33.505Z,97557.53
2022-08-26T10:03:39.820Z,97562.88
2022-08-26T10:06:55.982Z,97550.50
2022-08-26T10:10:01.004Z,97557.59
2022-08-26T10:13:14.362Z,97553.50
2022-08-26T10:16:23.552Z,97553.38
2022-08-26T10:19:56.195Z,97547.63
2022-08-26T10:23:08.508Z,97545.19
2022-08-26T10:26:18.252Z,97548.84
2022-08-26T10:29:31.350Z,97537.78
2022-08-26T10:32:49.967Z,97542.47
2022-08-26T10:35:59.778Z,97535.06
2022-08-26T10:39:09.726Z,97528.53
2022-08-26T10:42:24.603Z,97531.56
2022-08-26T10:45:35.771Z,97523.28
2022-08-26T10:48:48.457Z,97524.66
2022-08-26T10:51:59.982Z,97511.97
2022-08-26T10:55:19.224Z,97516.47
2022-08-26T10:58:44.639Z,97515.00
2022-08-26T11:02:03.886Z,97492.81
2022-08-26T11:05:22.692Z,97507.91
2022-08-26T11:08:31.012Z,97521.50
2022-08-26T11:11:53.379Z,97513.34
2022-08-26T11:14:59.144Z,97506.84
2022-08-26T11:18:07.832Z,97513.78
2022-08-26T11:21:50.724Z,97505.63
2022-08-26T11:25:05.493Z,97509.41
2022-08-26T11:28:09.278Z,97506.22
2022-08-26T11:31:54.103Z,97508.44
2022-08-26T11:35:01.520Z,97502.09
2022-08-26T11:38:21.274Z,97498.63
2022-08-26T11:41:29.435Z,97497.59
2022-08-26T11:44:49.576Z,97496.28
2022-08-26T11:47:54.864Z,97499.00
2022-08-26T11:51:08.463Z,97491.34
2022-08-26T11:54:16.408Z,97489.56
2022-08-26T11:57:21.811Z,97489.72
2022-08-26T12:00:33.471Z,97481.94
2022-08-26T12:03:45.512Z,97489.81
2022-08-26T12:06:53.845Z,97479.97
2022-08-26T12:10:50.971Z,97473.81
2022-08-26T12:14:07.217Z,97482.53
2022-08-26T12:17:16.060Z,97484.25
2022-08-26T12:20:46.024Z,97472.81
2022-08-26T12:23:55.040Z,97464.91
2022-08-26T12:27:17.561Z,97468.09
2022-08-26T12:30:26.445Z,97467.78
2022-08-26T12:33:31.267Z,97469.09
2022-08-26T12:36:42.378Z,97465.13
2022-08-26T12:39:51.848Z,97452.94
2022-08-26T12:42:56.879Z,97460.00
2022-08-26T12:46:04.895Z,97442.63
2022-08-26T12:49:11.021Z,97443.19
2022-08-26T12:52:33.987Z,97434.19
2022-08-26T12:55:44.112Z,97427.50
2022-08-26T12:59:05.005Z,97423.41
2022-08-26T13:02:12.070Z,97425.94
2022-08-26T13:05:23.982Z,97426.00
2022-08-26T13:08:29.495Z,97425.88
2022-08-26T13:11:58.465Z,97423.13
2022-08-26T13:15:04.028Z,97419.81
2022-08-26T13:18:11.251Z,97421.69
2022-08-26T13:21:19.902Z,97420.63
2022-08-26T13:24:27.781Z,97421.97
2022-08-26T13:27:34.653Z,97421.53
2022-08-26T13:30:38.474Z,97419.41
2022-08-26T13:33:44.738Z,97418.06
2022-08-26T13:36:52.062Z,97422.59
2022-08-26T13:39:57.690Z,97418.81
2022-08-26T13:43:04.145Z,97423.19
2022-08-26T13:46:10.487Z,97422.31
2022-08-26T13:49:15.308Z,97415.34
2022-08-26T13:52:30.265Z,97426.22
2022-08-26T13:55:41.076Z,97436.34
2022-08-26T13:58:50.095Z,97419.59
2022-08-26T14:01:54.853Z,97423.06
2022-08-26T14:05:02.518Z,97425.16
2022-08-26T14:08:07.561Z,97418.38
2022-08-26T14:11:13.004Z,97422.91
2022-08-26T14:14:21.411Z,97427.41
2022-08-26T14:17:30.690Z,97427.28
2022-08-26T14:20:39.108Z,97420.78
2022-08-26T14:23:47.752Z,97414.13
2022-08-26T14:26:52.889Z,97416.97
2022-08-26T14:30:00.419Z,97416.38
2022-08-26T14:33:06.945Z,97421.38
2022-08-26T14:36:32.342Z,97421.97
2022-08-26T14:39:37.226Z,97420.59
2022-08-26T14:42:47.857Z,97417.28
2022-08-26T14:45:58.695Z,97410.34
2022-08-26T14:49:06.194Z,97406.72
2022-08-26T14:52:13.748Z,97411.06
2022-08-26T14:55:17.811Z,97413.31
2022-08-26T14:58:21.877Z,97409.53
2022-08-26T15:01:32.625Z,97402.00
2022-08-26T15:04:36.705Z,97405.78
2022-08-26T15:07:41.492Z,97393.72
2022-08-26T15:10:47.110Z,97391.44
2022-08-26T15:13:53.622Z,97389.31
2022-08-26T15:17:01.005Z,97388.25
2022-08-26T15:20:08.733Z,97385.56
2022-08-26T15:23:12.970Z,97387.81
2022-08-26T15:26:21.068Z,97383.91
2022-08-26T15:29:27.742Z,97384.06
2022-08-26T15:32:41.400Z,97384.97
2022-08-26T15:35:45.665Z,97378.81
2022-08-26T15:38:49.994Z,97379.25
2022-08-26T15:41:56.345Z,97378.06
2022-08-26T15:45:02.292Z,97376.53
2022-08-26T15:48:09.894Z,97369.75
2022-08-26T15:51:23.109Z,97367.50
2022-08-26T15:54:27.654Z,97359.97
2022-08-26T15:57:33.786Z,97367.03
2022-08-26T16:00:37.924Z,97361.91
2022-08-26T16:04:03.772Z,97354.53
2022-08-26T16:07:07.774Z,97345.78
2022-08-26T16:10:14.896Z,97347.00
2022-08-26T16:13:20.437Z,97343.53
2022-08-26T16:16:29.474Z,97345.31
2022-08-26T16:19:37.596Z,97348.78
2022-08-26T16:22:41.659Z,97351.94
2022-08-26T16:25:47.711Z,97357.66
2022-08-26T16:28:54.322Z,97361.16
2022-08-26T16:31:58.635Z,97355.69
2022-08-26T16:35:07.085Z,97362.81
2022-08-26T16:38:12.177Z,97360.22
2022-08-26T16:41:19.418Z,97352.84
2022-08-26T16:44:29.875Z,97351.91
2022-08-26T16:47:41.399Z,97348.59
2022-08-26T16:50:51.408Z,97354.75
2022-08-26T16:53:59.979Z,97350.66
2022-08-26T16:57:07.645Z,97357.25
2022-08-26T17:00:15.483Z,97350.31
2022-08-26T17:03:19.697Z,97355.59
2022-08-26T17:06:25.758Z,97364.28
2022-08-26T17:09:31.639Z,97372.97
2022-08-26T17:12:37.524Z,97371.94
2022-08-26T17:15:41.821Z,97369.25
2022-08-26T17:18:47.477Z,97377.03
2022-08-26T17:21:53.936Z,97368.94
2022-08-26T17:24:58.759Z,97364.38
2022-08-26T17:28:02.865Z,97364.94
2022-08-26T17:31:13.888Z,97358.09
2022-08-26T17:34:19.167Z,97364.19
2022-08-26T17:37:25.435Z,97367.72
2022-08-26T17:40:31.746Z,97372.44
2022-08-26T17:43:41.375Z,97368.31
2022-08-26T17:46:47.006Z,97377.28
2022-08-26T17:49:51.722Z,97380.78
2022-08-26T17:52:58.124Z,97386.81
2022-08-26T17:56:08.925Z,97385.47
2022-08-26T17:59:13.558Z,97389.25
2022-08-26T18:02:20.390Z,97395.59
2022-08-26T18:05:25.933Z,97395.72
2022-08-26T18:08:32.012Z,97396.53
2022-08-26T18:11:38.858Z,97401.75
2022-08-26T18:14:42.845Z,97408.50
2022-08-26T18:17:48.079Z,97399.66
2022-08-26T18:20:52.792Z,97401.16
2022-08-26T18:24:13.332Z,97406.28
2022-08-26T18:27:20.020Z,97405.25
2022-08-26T18:30:24.910Z,97404.56
2022-08-26T18:33:32.391Z,97406.31
2022-08-26T18:36:38.386Z,97415.44
2022-08-26T18:39:44.835Z,97412.44
2022-08-26T18:42:53.998Z,97405.63
2022-08-26T18:46:04.048Z,97410.28
2022-08-26T18:49:08.508Z,97408.56
2022-08-26T18:52:12.841Z,97422.94
2022-08-26T18:56:06.304Z,97422.56
2022-08-26T18:59:16.241Z,97426.97
2022-08-26T19:02:22.425Z,97434.59
2022-08-26T19:05:27.605Z,97433.25
2022-08-26T19:08:31.311Z,97427.78
2022-08-26T19:11:43.045Z,97425.31
2022-08-26T19:14:47.343Z,97434.41
2022-08-26T19:17:51.208Z,97433.06
2022-08-26T19:20:54.810Z,97419.81
2022-08-26T19:24:02.721Z,97428.16
2022-08-26T19:27:11.730Z,97435.47
2022-08-26T19:35:17.638Z,97429.63
2022-08-26T19:38:21.734Z,97443.31
2022-08-26T19:41:37.240Z,97439.53
2022-08-26T19:45:05.132Z,97446.31
2022-08-26T19:48:11.800Z,97451.63
2022-08-26T19:51:25.750Z,97453.91
2022-08-26T19:54:57.404Z,97451.63
2022-08-26T19:58:09.566Z,97453.34
2022-08-26T20:02:15.854Z,97451.63
2022-08-26T20:10:25.192Z,97453.38
2022-08-26T20:14:04.939Z,97457.22
2022-08-26T20:17:09.001Z,97457.59
2022-08-26T20:20:35.059Z,97466.13
2022-08-26T20:23:53.880Z,97464.22
2022-08-26T20:27:03.222Z,97473.44
2022-08-26T20:30:14.206Z,97469.22
2022-08-26T20:33:20.039Z,97474.34
2022-08-26T20:36:26.963Z,97475.25
2022-08-26T20:39:58.651Z,97471.53
2022-08-26T20:43:06.082Z,97475.31
2022-08-26T20:46:18.269Z,97473.22
2022-08-26T20:49:42.997Z,97474.03
2022-08-26T20:52:53.538Z,97470.94
2022-08-26T20:56:02.671Z,97472.03
2022-08-26T20:59:10.854Z,97476.13
2022-08-26T21:02:14.888Z,97473.28
2022-08-26T21:05:21.443Z,97469.03
2022-08-26T21:08:27.032Z,97467.81
2022-08-26T21:11:31.498Z,97470.16
2022-08-26T21:14:36.847Z,97484.50
2022-08-26T21:17:41.619Z,97482.59
2022-08-26T21:20:46.631Z,97471.69
2022-08-26T21:23:51.064Z,97484.53
2022-08-26T21:26:55.869Z,97472.63
2022-08-26T21:30:02.729Z,97480.81
2022-08-26T21:33:06.840Z,97480.47
2022-08-26T21:36:12.663Z,97480.81
2022-08-26T21:39:18.215Z,97476.19
2022-08-26T21:42:22.459Z,97475.41
2022-08-26T21:45:27.993Z,97480.59
2022-08-26T21:48:34.747Z,97475.97
2022-08-26T21:51:43.022Z,97471.69
2022-08-26T21:54:58.191Z,97479.63
2022-08-26T21:58:02.433Z,97479.56
2022-08-26T22:01:10.758Z,97472.66
2022-08-26T22:04:14.727Z,97476.72
2022-08-26T22:07:20.029Z,97469.19
2022-08-26T22:10:24.871Z,97465.25
2022-08-26T22:13:32.872Z,97464.78
2022-08-26T22:16:38.218Z,97475.78
2022-08-26T22:19:46.101Z,97473.50
2022-08-26T22:22:50.380Z,97470.56
2022-08-26T22:25:57.790Z,97469.06
2022-08-26T22:29:03.431Z,97461.88
2022-08-26T22:32:10.257Z,97457.56
2022-08-26T22:35:28.774Z,97459.94
2022-08-26T22:38:34.665Z,97453.88
2022-08-26T22:44:41.588Z,97469.34
2022-08-26T22:47:47.159Z,97463.28
2022-08-26T22:50:53.320Z,97458.81
2022-08-26T22:53:59.054Z,97462.72
2022-08-26T22:57:03.808Z,97466.16
2022-08-26T23:00:08.988Z,97456.06
2022-08-26T23:03:19.191Z,97464.78
2022-08-26T23:06:22.992Z,97467.66
2022-08-26T23:09:27.465Z,97462.72
2022-08-26T23:12:31.627Z,97459.94
2022-08-26T23:15:37.645Z,97467.41
2022-08-26T23:18:45.599Z,97462.19
2022-08-26T23:21:52.371Z,97465.94
2022-08-26T23:24:56.236Z,97460.81
2022-08-26T23:28:04.771Z,97460.50
2022-08-26T23:31:24.453Z,97459.78
2022-08-26T23:34:48.115Z,97459.41
2022-08-26T23:37:53.407Z,97455.00
2022-08-26T23:40:57.684Z,97464.78
2022-08-26T23:44:05.172Z,97461.66
2022-08-26T23:47:10.732Z,97476.06
2022-08-26T23:50:16.251Z,97464.28
2022-08-26T23:53:21.800Z,97460.69
2022-08-26T23:56:26.661Z,97456.53
2022-08-26T23:59:31.232Z,97468.97
